sensor_id;sensor_type;location;lat;lon;timestamp;pressure;altitude;pressure_sealevel;temperature;humidity
84043;BME280;74129;52.540;13.416;2024-02-16T00:00:32;100943.80;;;12.13;72.30
84043;BME280;74129;52.540;13.416;2024-02-16T00:03:19;100941.84;;;12.11;72.27
84043;BME280;74129;52.540;13.416;2024-02-16T00:05:46;100941.20;;;12.05;72.38
84043;BME280;74129;52.540;13.416;2024-02-16T00:08:12;100939.81;;;12.01;72.42
84043;BME280;74129;52.540;13.416;2024-02-16T00:10:39;100938.13;;;11.99;72.48
84043;BME280;74129;52.540;13.416;2024-02-16T00:13:06;100936.60;;;11.97;72.36
84043;BME280;74129;52.540;13.416;2024-02-16T00:15:32;100941.33;;;11.96;72.59
84043;BME280;74129;52.540;13.416;2024-02-16T00:17:58;100943.12;;;11.97;72.53
84043;BME280;74129;52.540;13.416;2024-02-16T00:20:25;100942.48;;;11.97;72.28
84043;BME280;74129;52.540;13.416;2024-02-16T00:22:51;100943.21;;;11.91;72.46
84043;BME280;74129;52.540;13.416;2024-02-16T00:25:18;100940.92;;;11.84;72.46
84043;BME280;74129;52.540;13.416;2024-02-16T00:27:44;100941.28;;;11.82;72.62
84043;BME280;74129;52.540;13.416;2024-02-16T00:30:11;100940.64;;;11.82;72.53
84043;BME280;74129;52.540;13.416;2024-02-16T00:32:37;100935.26;;;11.83;72.50
84043;BME280;74129;52.540;13.416;2024-02-16T00:35:04;100932.77;;;11.82;72.41
84043;BME280;74129;52.540;13.416;2024-02-16T00:37:30;100935.00;;;11.80;72.42
84043;BME280;74129;52.540;13.416;2024-02-16T00:39:56;100934.38;;;11.76;72.44
84043;BME280;74129;52.540;13.416;2024-02-16T00:42:23;100931.96;;;11.72;72.62
84043;BME280;74129;52.540;13.416;2024-02-16T00:44:49;100926.20;;;11.67;72.74
84043;BME280;74129;52.540;13.416;2024-02-16T00:47:16;100928.32;;;11.68;72.49
84043;BME280;74129;52.540;13.416;2024-02-16T00:49:43;100923.31;;;11.68;72.44
84043;BME280;74129;52.540;13.416;2024-02-16T00:52:09;100927.86;;;11.66;72.52
84043;BME280;74129;52.540;13.416;2024-02-16T00:54:36;100926.53;;;11.62;72.62
84043;BME280;74129;52.540;13.416;2024-02-16T00:57:03;100927.39;;;11.61;72.62
84043;BME280;74129;52.540;13.416;2024-02-16T00:59:30;100924.05;;;11.61;72.53
84043;BME280;74129;52.540;13.416;2024-02-16T01:01:57;100924.64;;;11.62;72.63
84043;BME280;74129;52.540;13.416;2024-02-16T01:04:24;100924.52;;;11.60;72.49
84043;BME280;74129;52.540;13.416;2024-02-16T01:06:50;100917.95;;;11.60;72.41
84043;BME280;74129;52.540;13.416;2024-02-16T01:09:16;100917.50;;;11.54;72.62
84043;BME280;74129;52.540;13.416;2024-02-16T01:11:43;100914.09;;;11.52;72.83
84043;BME280;74129;52.540;13.416;2024-02-16T01:14:09;100912.95;;;11.51;72.80
84043;BME280;74129;52.540;13.416;2024-02-16T01:16:35;100909.19;;;11.51;72.75
84043;BME280;74129;52.540;13.416;2024-02-16T01:19:02;100904.55;;;11.53;72.63
84043;BME280;74129;52.540;13.416;2024-02-16T01:21:28;100901.86;;;11.52;72.58
84043;BME280;74129;52.540;13.416;2024-02-16T01:23:54;100898.14;;;11.51;72.61
84043;BME280;74129;52.540;13.416;2024-02-16T01:26:21;100901.96;;;11.51;72.51
84043;BME280;74129;52.540;13.416;2024-02-16T01:28:47;100901.46;;;11.50;72.45
84043;BME280;74129;52.540;13.416;2024-02-16T01:31:15;100903.50;;;11.50;72.58
84043;BME280;74129;52.540;13.416;2024-02-16T01:33:41;100896.92;;;11.49;72.65
84043;BME280;74129;52.540;13.416;2024-02-16T01:36:08;100900.76;;;11.50;72.65
84043;BME280;74129;52.540;13.416;2024-02-16T01:38:34;100900.69;;;11.48;72.43
84043;BME280;74129;52.540;13.416;2024-02-16T01:41:00;100899.98;;;11.43;72.22
84043;BME280;74129;52.540;13.416;2024-02-16T01:43:28;100900.44;;;11.39;72.59
84043;BME280;74129;52.540;13.416;2024-02-16T01:45:55;100898.40;;;11.40;72.51
84043;BME280;74129;52.540;13.416;2024-02-16T01:48:23;100898.02;;;11.40;72.45
84043;BME280;74129;52.540;13.416;2024-02-16T01:50:50;100894.48;;;11.37;72.57
84043;BME280;74129;52.540;13.416;2024-02-16T01:53:17;100893.70;;;11.35;72.55
84043;BME280;74129;52.540;13.416;2024-02-16T01:55:47;100890.04;;;11.34;72.50
84043;BME280;74129;52.540;13.416;2024-02-16T01:58:14;100884.35;;;11.32;72.73
84043;BME280;74129;52.540;13.416;2024-02-16T02:00:40;100878.18;;;11.29;72.75
84043;BME280;74129;52.540;13.416;2024-02-16T02:03:10;100873.41;;;11.25;72.58
84043;BME280;74129;52.540;13.416;2024-02-16T02:05:46;100870.92;;;11.25;72.79
84043;BME280;74129;52.540;13.416;2024-02-16T02:08:13;100865.84;;;11.22;72.96
84043;BME280;74129;52.540;13.416;2024-02-16T02:10:40;100861.62;;;11.20;72.84
84043;BME280;74129;52.540;13.416;2024-02-16T02:13:06;100859.00;;;11.22;72.90
84043;BME280;74129;52.540;13.416;2024-02-16T02:15:32;100860.65;;;11.21;72.68
84043;BME280;74129;52.540;13.416;2024-02-16T02:17:59;100852.27;;;11.17;72.69
84043;BME280;74129;52.540;13.416;2024-02-16T02:20:25;100850.52;;;11.17;72.81
84043;BME280;74129;52.540;13.416;2024-02-16T02:22:52;100839.91;;;11.15;72.82
84043;BME280;74129;52.540;13.416;2024-02-16T02:25:19;100834.59;;;11.11;72.99
84043;BME280;74129;52.540;13.416;2024-02-16T02:27:45;100833.70;;;11.08;73.05
84043;BME280;74129;52.540;13.416;2024-02-16T02:30:12;100831.52;;;11.05;73.05
84043;BME280;74129;52.540;13.416;2024-02-16T02:32:39;100831.13;;;11.04;73.13
84043;BME280;74129;52.540;13.416;2024-02-16T02:35:06;100826.11;;;10.99;73.00
84043;BME280;74129;52.540;13.416;2024-02-16T02:37:32;100822.67;;;10.96;72.96
84043;BME280;74129;52.540;13.416;2024-02-16T02:39:59;100820.36;;;10.95;73.04
84043;BME280;74129;52.540;13.416;2024-02-16T02:42:25;100819.67;;;10.96;73.04
84043;BME280;74129;52.540;13.416;2024-02-16T02:44:51;100817.03;;;10.96;73.14
84043;BME280;74129;52.540;13.416;2024-02-16T02:47:18;100814.57;;;10.92;73.15
84043;BME280;74129;52.540;13.416;2024-02-16T02:49:44;100817.64;;;10.92;73.27
84043;BME280;74129;52.540;13.416;2024-02-16T02:52:11;100813.21;;;10.92;73.29
84043;BME280;74129;52.540;13.416;2024-02-16T02:54:37;100810.13;;;10.93;73.17
84043;BME280;74129;52.540;13.416;2024-02-16T02:57:03;100806.55;;;10.92;72.96
84043;BME280;74129;52.540;13.416;2024-02-16T02:59:30;100806.95;;;10.90;73.29
84043;BME280;74129;52.540;13.416;2024-02-16T03:01:56;100804.41;;;10.88;73.18
84043;BME280;74129;52.540;13.416;2024-02-16T03:04:22;100804.38;;;10.86;73.41
84043;BME280;74129;52.540;13.416;2024-02-16T03:06:51;100802.48;;;10.85;73.42
84043;BME280;74129;52.540;13.416;2024-02-16T03:09:18;100803.57;;;10.86;73.17
84043;BME280;74129;52.540;13.416;2024-02-16T03:11:45;100806.46;;;10.85;73.18
84043;BME280;74129;52.540;13.416;2024-02-16T03:14:11;100804.85;;;10.85;73.18
84043;BME280;74129;52.540;13.416;2024-02-16T03:16:37;100811.84;;;10.84;73.06
84043;BME280;74129;52.540;13.416;2024-02-16T03:19:07;100814.22;;;10.81;73.04
84043;BME280;74129;52.540;13.416;2024-02-16T03:21:36;100814.01;;;10.81;73.08
84043;BME280;74129;52.540;13.416;2024-02-16T03:24:03;100821.27;;;10.80;73.09
84043;BME280;74129;52.540;13.416;2024-02-16T03:26:33;100817.10;;;10.79;73.16
84043;BME280;74129;52.540;13.416;2024-02-16T03:28:59;100814.67;;;10.79;73.06
84043;BME280;74129;52.540;13.416;2024-02-16T03:31:25;100815.30;;;10.81;73.10
84043;BME280;74129;52.540;13.416;2024-02-16T03:33:52;100812.95;;;10.82;73.16
84043;BME280;74129;52.540;13.416;2024-02-16T03:36:19;100804.40;;;10.83;73.22
84043;BME280;74129;52.540;13.416;2024-02-16T03:38:48;100801.44;;;10.82;73.08
84043;BME280;74129;52.540;13.416;2024-02-16T03:41:19;100800.36;;;10.83;73.13
84043;BME280;74129;52.540;13.416;2024-02-16T03:43:46;100796.65;;;10.82;73.10
84043;BME280;74129;52.540;13.416;2024-02-16T03:46:13;100792.84;;;10.79;72.99
84043;BME280;74129;52.540;13.416;2024-02-16T03:48:39;100790.13;;;10.78;73.00
84043;BME280;74129;52.540;13.416;2024-02-16T03:51:06;100787.13;;;10.78;73.15
84043;BME280;74129;52.540;13.416;2024-02-16T03:53:33;100793.77;;;10.77;73.06
84043;BME280;74129;52.540;13.416;2024-02-16T03:56:00;100793.19;;;10.77;73.11
84043;BME280;74129;52.540;13.416;2024-02-16T03:58:26;100790.06;;;10.77;73.21
84043;BME280;74129;52.540;13.416;2024-02-16T04:00:53;100787.85;;;10.77;73.13
84043;BME280;74129;52.540;13.416;2024-02-16T04:03:19;100785.77;;;10.77;73.06
84043;BME280;74129;52.540;13.416;2024-02-16T04:05:45;100780.70;;;10.76;72.85
84043;BME280;74129;52.540;13.416;2024-02-16T04:08:12;100778.86;;;10.75;72.94
84043;BME280;74129;52.540;13.416;2024-02-16T04:10:38;100777.75;;;10.74;72.95
84043;BME280;74129;52.540;13.416;2024-02-16T04:13:05;100776.73;;;10.72;72.88
84043;BME280;74129;52.540;13.416;2024-02-16T04:15:31;100774.81;;;10.69;72.94
84043;BME280;74129;52.540;13.416;2024-02-16T04:17:57;100776.32;;;10.66;73.18
84043;BME280;74129;52.540;13.416;2024-02-16T04:20:24;100777.16;;;10.64;73.11
84043;BME280;74129;52.540;13.416;2024-02-16T04:22:50;100781.20;;;10.63;73.02
84043;BME280;74129;52.540;13.416;2024-02-16T04:25:17;100777.71;;;10.65;73.12
84043;BME280;74129;52.540;13.416;2024-02-16T04:27:43;100773.73;;;10.66;73.11
84043;BME280;74129;52.540;13.416;2024-02-16T04:30:10;100771.23;;;10.67;73.15
84043;BME280;74129;52.540;13.416;2024-02-16T04:32:36;100770.49;;;10.68;72.90
84043;BME280;74129;52.540;13.416;2024-02-16T04:35:03;100769.84;;;10.67;72.81
84043;BME280;74129;52.540;13.416;2024-02-16T04:37:30;100765.56;;;10.66;73.05
84043;BME280;74129;52.540;13.416;2024-02-16T04:39:56;100765.34;;;10.64;73.15
84043;BME280;74129;52.540;13.416;2024-02-16T04:42:23;100764.96;;;10.65;73.02
84043;BME280;74129;52.540;13.416;2024-02-16T04:44:49;100761.59;;;10.66;72.92
84043;BME280;74129;52.540;13.416;2024-02-16T04:47:15;100764.41;;;10.63;73.04
84043;BME280;74129;52.540;13.416;2024-02-16T04:49:41;100763.30;;;10.61;73.14
84043;BME280;74129;52.540;13.416;2024-02-16T04:52:08;100759.42;;;10.61;73.25
84043;BME280;74129;52.540;13.416;2024-02-16T04:54:35;100751.60;;;10.63;73.01
84043;BME280;74129;52.540;13.416;2024-02-16T04:57:02;100751.98;;;10.63;73.06
84043;BME280;74129;52.540;13.416;2024-02-16T04:59:29;100741.11;;;10.63;73.06
84043;BME280;74129;52.540;13.416;2024-02-16T05:01:55;100739.02;;;10.64;73.09
84043;BME280;74129;52.540;13.416;2024-02-16T05:04:22;100742.25;;;10.64;73.12
84043;BME280;74129;52.540;13.416;2024-02-16T05:06:48;100746.35;;;10.60;73.14
84043;BME280;74129;52.540;13.416;2024-02-16T05:09:17;100746.02;;;10.56;73.13
84043;BME280;74129;52.540;13.416;2024-02-16T05:11:44;100743.70;;;10.54;73.18
84043;BME280;74129;52.540;13.416;2024-02-16T05:14:11;100740.58;;;10.54;73.01
84043;BME280;74129;52.540;13.416;2024-02-16T05:16:44;100739.05;;;10.56;73.10
84043;BME280;74129;52.540;13.416;2024-02-16T05:19:11;100743.42;;;10.58;73.13
84043;BME280;74129;52.540;13.416;2024-02-16T05:21:37;100742.65;;;10.56;72.97
84043;BME280;74129;52.540;13.416;2024-02-16T05:24:04;100740.36;;;10.53;72.88
84043;BME280;74129;52.540;13.416;2024-02-16T05:26:30;100739.81;;;10.53;72.96
84043;BME280;74129;52.540;13.416;2024-02-16T05:28:56;100735.27;;;10.51;72.75
84043;BME280;74129;52.540;13.416;2024-02-16T05:31:23;100734.52;;;10.51;72.89
84043;BME280;74129;52.540;13.416;2024-02-16T05:33:50;100731.04;;;10.51;73.00
84043;BME280;74129;52.540;13.416;2024-02-16T05:36:21;100724.23;;;10.53;72.93
84043;BME280;74129;52.540;13.416;2024-02-16T05:38:50;100718.79;;;10.54;72.78
84043;BME280;74129;52.540;13.416;2024-02-16T05:41:18;100717.70;;;10.57;72.91
84043;BME280;74129;52.540;13.416;2024-02-16T05:43:44;100708.30;;;10.59;72.81
84043;BME280;74129;52.540;13.416;2024-02-16T05:46:14;100698.75;;;10.57;73.03
84043;BME280;74129;52.540;13.416;2024-02-16T05:48:42;100703.80;;;10.56;72.90
84043;BME280;74129;52.540;13.416;2024-02-16T05:51:08;100700.19;;;10.54;72.83
84043;BME280;74129;52.540;13.416;2024-02-16T05:53:35;100703.86;;;10.56;72.73
84043;BME280;74129;52.540;13.416;2024-02-16T05:56:02;100700.49;;;10.54;72.90
84043;BME280;74129;52.540;13.416;2024-02-16T05:58:29;100706.46;;;10.51;73.05
84043;BME280;74129;52.540;13.416;2024-02-16T06:00:55;100702.72;;;10.50;73.09
84043;BME280;74129;52.540;13.416;2024-02-16T06:03:21;100702.38;;;10.48;73.09
84043;BME280;74129;52.540;13.416;2024-02-16T06:05:48;100709.48;;;10.47;72.95
84043;BME280;74129;52.540;13.416;2024-02-16T06:08:14;100713.74;;;10.45;73.19
84043;BME280;74129;52.540;13.416;2024-02-16T06:10:43;100709.58;;;10.47;73.35
84043;BME280;74129;52.540;13.416;2024-02-16T06:13:10;100708.02;;;10.51;73.17
84043;BME280;74129;52.540;13.416;2024-02-16T06:15:37;100702.12;;;10.54;73.17
84043;BME280;74129;52.540;13.416;2024-02-16T06:18:04;100698.23;;;10.53;73.31
84043;BME280;74129;52.540;13.416;2024-02-16T06:20:30;100696.19;;;10.54;73.18
84043;BME280;74129;52.540;13.416;2024-02-16T06:22:57;100695.27;;;10.53;73.17
84043;BME280;74129;52.540;13.416;2024-02-16T06:25:23;100701.35;;;10.52;72.95
84043;BME280;74129;52.540;13.416;2024-02-16T06:27:49;100700.02;;;10.50;72.97
84043;BME280;74129;52.540;13.416;2024-02-16T06:30:16;100697.65;;;10.48;72.91
84043;BME280;74129;52.540;13.416;2024-02-16T06:32:42;100700.01;;;10.47;72.80
84043;BME280;74129;52.540;13.416;2024-02-16T06:35:09;100698.05;;;10.45;72.93
84043;BME280;74129;52.540;13.416;2024-02-16T06:37:35;100699.57;;;10.46;72.77
84043;BME280;74129;52.540;13.416;2024-02-16T06:40:04;100699.88;;;10.45;72.78
84043;BME280;74129;52.540;13.416;2024-02-16T06:42:30;100693.85;;;10.45;72.94
84043;BME280;74129;52.540;13.416;2024-02-16T06:44:57;100702.69;;;10.47;73.13
84043;BME280;74129;52.540;13.416;2024-02-16T06:47:23;100707.84;;;10.50;73.07
84043;BME280;74129;52.540;13.416;2024-02-16T06:49:52;100720.67;;;10.54;73.15
84043;BME280;74129;52.540;13.416;2024-02-16T06:52:19;100720.79;;;10.55;72.95
84043;BME280;74129;52.540;13.416;2024-02-16T06:54:45;100720.15;;;10.55;72.85
84043;BME280;74129;52.540;13.416;2024-02-16T06:57:12;100719.21;;;10.58;72.98
84043;BME280;74129;52.540;13.416;2024-02-16T06:59:38;100716.83;;;10.60;72.76
84043;BME280;74129;52.540;13.416;2024-02-16T07:02:05;100716.21;;;10.64;72.81
84043;BME280;74129;52.540;13.416;2024-02-16T07:04:31;100709.13;;;10.65;72.62
84043;BME280;74129;52.540;13.416;2024-02-16T07:06:58;100712.63;;;10.65;72.61
84043;BME280;74129;52.540;13.416;2024-02-16T07:09:24;100713.80;;;10.63;72.61
84043;BME280;74129;52.540;13.416;2024-02-16T07:11:51;100708.50;;;10.63;72.66
84043;BME280;74129;52.540;13.416;2024-02-16T07:14:18;100713.50;;;10.66;72.88
84043;BME280;74129;52.540;13.416;2024-02-16T07:16:44;100718.98;;;10.66;72.62
84043;BME280;74129;52.540;13.416;2024-02-16T07:19:11;100714.27;;;10.68;72.59
84043;BME280;74129;52.540;13.416;2024-02-16T07:21:38;100719.47;;;10.67;72.64
84043;BME280;74129;52.540;13.416;2024-02-16T07:24:05;100722.17;;;10.69;72.71
84043;BME280;74129;52.540;13.416;2024-02-16T07:26:31;100714.63;;;10.71;72.66
84043;BME280;74129;52.540;13.416;2024-02-16T07:28:59;100717.86;;;10.73;72.53
84043;BME280;74129;52.540;13.416;2024-02-16T07:31:25;100711.48;;;10.74;72.58
84043;BME280;74129;52.540;13.416;2024-02-16T07:33:52;100716.88;;;10.81;72.55
84043;BME280;74129;52.540;13.416;2024-02-16T07:36:19;100713.42;;;10.85;72.40
84043;BME280;74129;52.540;13.416;2024-02-16T07:38:45;100706.41;;;10.90;72.60
84043;BME280;74129;52.540;13.416;2024-02-16T07:41:12;100703.84;;;10.97;72.70
84043;BME280;74129;52.540;13.416;2024-02-16T07:43:39;100702.61;;;11.03;72.47
84043;BME280;74129;52.540;13.416;2024-02-16T07:46:05;100700.42;;;11.09;72.59
84043;BME280;74129;52.540;13.416;2024-02-16T07:48:31;100699.00;;;11.15;72.18
84043;BME280;74129;52.540;13.416;2024-02-16T07:50:58;100703.55;;;11.22;72.25
84043;BME280;74129;52.540;13.416;2024-02-16T07:53:29;100695.73;;;11.29;71.75
84043;BME280;74129;52.540;13.416;2024-02-16T07:55:55;100695.21;;;11.38;71.80
84043;BME280;74129;52.540;13.416;2024-02-16T07:58:22;100690.31;;;11.45;71.62
84043;BME280;74129;52.540;13.416;2024-02-16T08:00:48;100687.36;;;11.54;71.65
84043;BME280;74129;52.540;13.416;2024-02-16T08:03:15;100692.60;;;11.64;71.32
84043;BME280;74129;52.540;13.416;2024-02-16T08:05:41;100691.48;;;11.74;71.28
84043;BME280;74129;52.540;13.416;2024-02-16T08:08:08;100690.98;;;11.82;70.96
84043;BME280;74129;52.540;13.416;2024-02-16T08:10:34;100694.45;;;11.91;70.83
84043;BME280;74129;52.540;13.416;2024-02-16T08:13:02;100697.92;;;12.03;70.56
84043;BME280;74129;52.540;13.416;2024-02-16T08:15:28;100700.52;;;12.09;70.32
84043;BME280;74129;52.540;13.416;2024-02-16T08:17:56;100700.88;;;12.15;70.19
84043;BME280;74129;52.540;13.416;2024-02-16T08:20:23;100710.50;;;12.20;69.83
84043;BME280;74129;52.540;13.416;2024-02-16T08:22:49;100710.41;;;12.24;69.92
84043;BME280;74129;52.540;13.416;2024-02-16T08:25:16;100710.06;;;12.28;69.82
84043;BME280;74129;52.540;13.416;2024-02-16T08:27:43;100711.24;;;12.30;69.83
84043;BME280;74129;52.540;13.416;2024-02-16T08:30:09;100712.50;;;12.34;69.75
84043;BME280;74129;52.540;13.416;2024-02-16T08:32:36;100711.06;;;12.39;69.48
84043;BME280;74129;52.540;13.416;2024-02-16T08:35:02;100710.23;;;12.42;69.34
84043;BME280;74129;52.540;13.416;2024-02-16T08:37:29;100709.09;;;12.44;69.23
84043;BME280;74129;52.540;13.416;2024-02-16T08:39:55;100706.94;;;12.50;69.14
84043;BME280;74129;52.540;13.416;2024-02-16T08:42:22;100707.94;;;12.57;68.90
84043;BME280;74129;52.540;13.416;2024-02-16T08:44:49;100703.03;;;12.57;68.68
84043;BME280;74129;52.540;13.416;2024-02-16T08:47:16;100697.11;;;12.60;68.70
84043;BME280;74129;52.540;13.416;2024-02-16T08:49:42;100697.86;;;12.60;68.37
84043;BME280;74129;52.540;13.416;2024-02-16T08:52:09;100698.98;;;12.57;68.21
84043;BME280;74129;52.540;13.416;2024-02-16T08:54:35;100700.27;;;12.57;68.24
84043;BME280;74129;52.540;13.416;2024-02-16T08:57:03;100697.31;;;12.59;68.36
84043;BME280;74129;52.540;13.416;2024-02-16T08:59:29;100693.13;;;12.68;68.37
84043;BME280;74129;52.540;13.416;2024-02-16T09:01:56;100692.45;;;12.82;68.33
84043;BME280;74129;52.540;13.416;2024-02-16T09:04:24;100690.31;;;12.92;68.09
84043;BME280;74129;52.540;13.416;2024-02-16T09:06:51;100688.53;;;12.96;68.04
84043;BME280;74129;52.540;13.416;2024-02-16T09:09:17;100685.79;;;12.99;67.73
84043;BME280;74129;52.540;13.416;2024-02-16T09:11:44;100677.69;;;12.97;67.43
84043;BME280;74129;52.540;13.416;2024-02-16T09:14:10;100681.41;;;12.96;67.21
84043;BME280;74129;52.540;13.416;2024-02-16T09:16:36;100684.54;;;12.94;67.28
84043;BME280;74129;52.540;13.416;2024-02-16T09:19:03;100685.99;;;12.93;67.32
84043;BME280;74129;52.540;13.416;2024-02-16T09:21:29;100687.88;;;12.93;67.33
84043;BME280;74129;52.540;13.416;2024-02-16T09:23:56;100690.21;;;12.93;67.33
84043;BME280;74129;52.540;13.416;2024-02-16T09:26:27;100690.80;;;13.00;67.36
84043;BME280;74129;52.540;13.416;2024-02-16T09:28:57;100692.70;;;13.04;67.21
84043;BME280;74129;52.540;13.416;2024-02-16T09:31:24;100688.01;;;13.06;67.06
84043;BME280;74129;52.540;13.416;2024-02-16T09:33:51;100687.52;;;13.10;67.10
84043;BME280;74129;52.540;13.416;2024-02-16T09:36:18;100674.77;;;13.13;67.09
84043;BME280;74129;52.540;13.416;2024-02-16T09:38:44;100674.34;;;13.23;67.36
84043;BME280;74129;52.540;13.416;2024-02-16T09:41:11;100674.84;;;13.35;67.20
84043;BME280;74129;52.540;13.416;2024-02-16T09:43:38;100674.02;;;13.52;67.12
84043;BME280;74129;52.540;13.416;2024-02-16T09:46:06;100677.67;;;13.62;66.78
84043;BME280;74129;52.540;13.416;2024-02-16T09:48:32;100676.91;;;13.68;66.62
84043;BME280;74129;52.540;13.416;2024-02-16T09:50:58;100683.05;;;13.75;66.41
84043;BME280;74129;52.540;13.416;2024-02-16T09:53:27;100685.33;;;13.78;66.12
84043;BME280;74129;52.540;13.416;2024-02-16T09:55:54;100683.73;;;13.81;65.96
84043;BME280;74129;52.540;13.416;2024-02-16T09:58:21;100688.67;;;13.82;65.86
84043;BME280;74129;52.540;13.416;2024-02-16T10:00:49;100692.08;;;13.81;65.54
84043;BME280;74129;52.540;13.416;2024-02-16T10:03:22;100692.17;;;13.82;65.54
84043;BME280;74129;52.540;13.416;2024-02-16T10:05:50;100690.55;;;13.87;65.13
84043;BME280;74129;52.540;13.416;2024-02-16T10:08:19;100693.20;;;13.88;64.91
84043;BME280;74129;52.540;13.416;2024-02-16T10:10:45;100690.52;;;13.91;64.93
84043;BME280;74129;52.540;13.416;2024-02-16T10:13:12;100690.16;;;13.94;64.90
84043;BME280;74129;52.540;13.416;2024-02-16T10:15:38;100689.65;;;14.00;64.67
84043;BME280;74129;52.540;13.416;2024-02-16T10:18:05;100684.22;;;14.06;64.42
84043;BME280;74129;52.540;13.416;2024-02-16T10:20:33;100684.73;;;14.08;64.23
84043;BME280;74129;52.540;13.416;2024-02-16T10:23:08;100685.34;;;14.10;64.01
84043;BME280;74129;52.540;13.416;2024-02-16T10:25:36;100689.17;;;14.14;64.05
84043;BME280;74129;52.540;13.416;2024-02-16T10:28:13;100690.51;;;14.16;63.59
84043;BME280;74129;52.540;13.416;2024-02-16T10:30:41;100693.98;;;14.13;63.13
84043;BME280;74129;52.540;13.416;2024-02-16T10:33:11;100690.11;;;14.11;63.53
84043;BME280;74129;52.540;13.416;2024-02-16T10:35:38;100687.09;;;14.16;63.59
84043;BME280;74129;52.540;13.416;2024-02-16T10:38:06;100688.27;;;14.21;63.07
84043;BME280;74129;52.540;13.416;2024-02-16T10:40:38;100687.29;;;14.22;63.09
84043;BME280;74129;52.540;13.416;2024-02-16T10:43:06;100686.61;;;14.27;63.07
84043;BME280;74129;52.540;13.416;2024-02-16T10:45:37;100686.88;;;14.30;62.62
84043;BME280;74129;52.540;13.416;2024-02-16T10:48:05;100683.58;;;14.30;62.71
84043;BME280;74129;52.540;13.416;2024-02-16T10:50:34;100683.73;;;14.32;62.97
84043;BME280;74129;52.540;13.416;2024-02-16T10:53:12;100682.58;;;14.36;62.66
84043;BME280;74129;52.540;13.416;2024-02-16T10:55:40;100676.30;;;14.38;62.52
84043;BME280;74129;52.540;13.416;2024-02-16T10:58:11;100678.95;;;14.39;62.22
84043;BME280;74129;52.540;13.416;2024-02-16T11:01:08;100673.00;;;14.35;61.90
84043;BME280;74129;52.540;13.416;2024-02-16T11:03:40;100672.25;;;14.33;62.41
84043;BME280;74129;52.540;13.416;2024-02-16T11:06:16;100666.30;;;14.33;62.47
84043;BME280;74129;52.540;13.416;2024-02-16T11:08:43;100661.53;;;14.34;61.81
84043;BME280;74129;52.540;13.416;2024-02-16T11:11:09;100657.95;;;14.38;62.01
84043;BME280;74129;52.540;13.416;2024-02-16T11:13:37;100657.65;;;14.41;61.87
84043;BME280;74129;52.540;13.416;2024-02-16T11:16:08;100657.37;;;14.44;61.67
84043;BME280;74129;52.540;13.416;2024-02-16T11:18:41;100653.00;;;14.50;61.74
84043;BME280;74129;52.540;13.416;2024-02-16T11:21:12;100655.73;;;14.55;61.83
84043;BME280;74129;52.540;13.416;2024-02-16T11:23:41;100656.48;;;14.61;61.97
84043;BME280;74129;52.540;13.416;2024-02-16T11:26:12;100651.23;;;14.69;61.60
84043;BME280;74129;52.540;13.416;2024-02-16T11:28:41;100656.77;;;14.82;61.68
84043;BME280;74129;52.540;13.416;2024-02-16T11:31:09;100651.90;;;14.91;61.10
84043;BME280;74129;52.540;13.416;2024-02-16T11:33:36;100644.34;;;14.94;60.61
84043;BME280;74129;52.540;13.416;2024-02-16T11:36:04;100636.98;;;15.00;60.81
84043;BME280;74129;52.540;13.416;2024-02-16T11:38:32;100636.80;;;15.09;60.90
84043;BME280;74129;52.540;13.416;2024-02-16T11:41:06;100633.06;;;15.16;60.25
84043;BME280;74129;52.540;13.416;2024-02-16T11:43:34;100625.55;;;15.20;60.31
84043;BME280;74129;52.540;13.416;2024-02-16T11:46:14;100624.02;;;15.26;60.41
84043;BME280;74129;52.540;13.416;2024-02-16T11:48:41;100625.11;;;15.42;60.30
84043;BME280;74129;52.540;13.416;2024-02-16T11:51:07;100626.57;;;15.59;59.81
84043;BME280;74129;52.540;13.416;2024-02-16T11:53:34;100620.55;;;15.74;59.76
84043;BME280;74129;52.540;13.416;2024-02-16T11:56:00;100623.11;;;15.89;59.53
84043;BME280;74129;52.540;13.416;2024-02-16T11:58:27;100625.07;;;16.01;59.16
84043;BME280;74129;52.540;13.416;2024-02-16T12:00:54;100628.94;;;16.14;58.89
84043;BME280;74129;52.540;13.416;2024-02-16T12:03:24;100627.98;;;16.25;58.62
84043;BME280;74129;52.540;13.416;2024-02-16T12:05:52;100634.98;;;16.32;58.08
84043;BME280;74129;52.540;13.416;2024-02-16T12:08:20;100640.59;;;16.35;57.76
84043;BME280;74129;52.540;13.416;2024-02-16T12:10:48;100643.79;;;16.39;57.95
84043;BME280;74129;52.540;13.416;2024-02-16T12:13:19;100643.05;;;16.49;58.03
84043;BME280;74129;52.540;13.416;2024-02-16T12:15:47;100638.70;;;16.54;56.95
84043;BME280;74129;52.540;13.416;2024-02-16T12:18:25;100641.88;;;16.52;56.83
84043;BME280;74129;52.540;13.416;2024-02-16T12:21:06;100639.36;;;16.50;56.44
84043;BME280;74129;52.540;13.416;2024-02-16T12:23:33;100636.52;;;16.46;56.71
84043;BME280;74129;52.540;13.416;2024-02-16T12:26:00;100633.98;;;16.42;56.41
84043;BME280;74129;52.540;13.416;2024-02-16T12:28:28;100628.80;;;16.39;56.70
84043;BME280;74129;52.540;13.416;2024-02-16T12:30:55;100627.04;;;16.41;56.52
84043;BME280;74129;52.540;13.416;2024-02-16T12:33:22;100625.44;;;16.42;56.90
84043;BME280;74129;52.540;13.416;2024-02-16T12:35:48;100629.09;;;16.42;56.62
84043;BME280;74129;52.540;13.416;2024-02-16T12:38:15;100632.61;;;16.47;56.51
84043;BME280;74129;52.540;13.416;2024-02-16T12:40:46;100632.13;;;16.53;55.95